sensor_id;sensor_type;location;lat;lon;timestamp;P1;durP1;ratioP1;P2;durP2;ratioP2
47778;SDS011;33538;48.432;11.350;2023-02-11T00:01:05;52.33;;;18.98;;
47778;SDS011;33538;48.432;11.350;2023-02-11T00:03:33;46.40;;;16.73;;
47778;SDS011;33538;48.432;11.350;2023-02-11T00:06:01;45.92;;;16.73;;
47778;SDS011;33538;48.432;11.350;2023-02-11T00:08:29;42.33;;;17.05;;
47778;SDS011;33538;48.432;11.350;2023-02-11T00:10:56;47.75;;;17.05;;
47778;SDS011;33538;48.432;11.350;2023-02-11T00:13:25;42.13;;;17.13;;
47778;SDS011;33538;48.432;11.350;2023-02-11T00:15:52;40.75;;;16.13;;
47778;SDS011;33538;48.432;11.350;2023-02-11T00:18:20;40.08;;;16.52;;
47778;SDS011;33538;48.432;11.350;2023-02-11T00:20:47;41.28;;;16.90;;
47778;SDS011;33538;48.432;11.350;2023-02-11T00:23:14;47.45;;;16.65;;
47778;SDS011;33538;48.432;11.350;2023-02-11T00:25:41;52.42;;;19.17;;
47778;SDS011;33538;48.432;11.350;2023-02-11T00:28:09;50.78;;;16.95;;
47778;SDS011;33538;48.432;11.350;2023-02-11T00:30:38;44.97;;;17.15;;
47778;SDS011;33538;48.432;11.350;2023-02-11T00:33:05;40.90;;;15.98;;
47778;SDS011;33538;48.432;11.350;2023-02-11T00:35:32;44.25;;;16.92;;
47778;SDS011;33538;48.432;11.350;2023-02-11T00:37:58;44.33;;;16.70;;
47778;SDS011;33538;48.432;11.350;2023-02-11T00:40:25;47.08;;;16.92;;
47778;SDS011;33538;48.432;11.350;2023-02-11T00:42:52;50.33;;;16.95;;
47778;SDS011;33538;48.432;11.350;2023-02-11T00:45:19;39.83;;;16.17;;
47778;SDS011;33538;48.432;11.350;2023-02-11T00:47:47;36.10;;;16.02;;
47778;SDS011;33538;48.432;11.350;2023-02-11T00:50:13;43.42;;;16.00;;
47778;SDS011;33538;48.432;11.350;2023-02-11T00:52:40;40.30;;;15.77;;
47778;SDS011;33538;48.432;11.350;2023-02-11T00:55:07;37.28;;;15.35;;
47778;SDS011;33538;48.432;11.350;2023-02-11T00:57:34;45.20;;;16.00;;
47778;SDS011;33538;48.432;11.350;2023-02-11T01:00:01;41.35;;;16.52;;
47778;SDS011;33538;48.432;11.350;2023-02-11T01:02:29;37.38;;;15.23;;
47778;SDS011;33538;48.432;11.350;2023-02-11T01:04:57;40.53;;;16.40;;
47778;SDS011;33538;48.432;11.350;2023-02-11T01:07:24;51.05;;;16.90;;
47778;SDS011;33538;48.432;11.350;2023-02-11T01:09:51;44.30;;;16.48;;
47778;SDS011;33538;48.432;11.350;2023-02-11T01:12:17;44.78;;;16.77;;
47778;SDS011;33538;48.432;11.350;2023-02-11T01:14:44;45.15;;;15.43;;
47778;SDS011;33538;48.432;11.350;2023-02-11T01:17:11;40.17;;;15.65;;
47778;SDS011;33538;48.432;11.350;2023-02-11T01:19:38;50.90;;;18.02;;
47778;SDS011;33538;48.432;11.350;2023-02-11T01:22:06;41.72;;;16.77;;
47778;SDS011;33538;48.432;11.350;2023-02-11T01:24:32;36.33;;;16.17;;
47778;SDS011;33538;48.432;11.350;2023-02-11T01:26:59;40.58;;;16.27;;
47778;SDS011;33538;48.432;11.350;2023-02-11T01:29:26;48.58;;;17.58;;
47778;SDS011;33538;48.432;11.350;2023-02-11T01:31:53;43.03;;;15.75;;
47778;SDS011;33538;48.432;11.350;2023-02-11T01:34:20;41.15;;;16.73;;
47778;SDS011;33538;48.432;11.350;2023-02-11T01:36:46;48.08;;;16.13;;
47778;SDS011;33538;48.432;11.350;2023-02-11T01:39:14;48.92;;;17.95;;
47778;SDS011;33538;48.432;11.350;2023-02-11T01:41:41;43.85;;;18.10;;
47778;SDS011;33538;48.432;11.350;2023-02-11T01:44:24;43.90;;;17.13;;
47778;SDS011;33538;48.432;11.350;2023-02-11T01:46:53;50.63;;;16.25;;
47778;SDS011;33538;48.432;11.350;2023-02-11T01:49:20;44.40;;;18.25;;
47778;SDS011;33538;48.432;11.350;2023-02-11T01:51:51;43.13;;;16.52;;
47778;SDS011;33538;48.432;11.350;2023-02-11T01:54:23;43.72;;;17.00;;
47778;SDS011;33538;48.432;11.350;2023-02-11T01:56:53;42.38;;;15.88;;
47778;SDS011;33538;48.432;11.350;2023-02-11T01:59:23;44.72;;;17.50;;
47778;SDS011;33538;48.432;11.350;2023-02-11T02:01:55;40.47;;;16.83;;
47778;SDS011;33538;48.432;11.350;2023-02-11T02:04:26;42.40;;;17.30;;
47778;SDS011;33538;48.432;11.350;2023-02-11T02:06:58;39.17;;;16.27;;
47778;SDS011;33538;48.432;11.350;2023-02-11T02:09:30;53.05;;;19.15;;
47778;SDS011;33538;48.432;11.350;2023-02-11T02:12:03;43.50;;;16.15;;
47778;SDS011;33538;48.432;11.350;2023-02-11T02:14:29;41.83;;;16.88;;
47778;SDS011;33538;48.432;11.350;2023-02-11T02:16:56;44.78;;;16.92;;
47778;SDS011;33538;48.432;11.350;2023-02-11T02:19:36;46.88;;;18.05;;
47778;SDS011;33538;48.432;11.350;2023-02-11T02:28:47;46.38;;;17.27;;
47778;SDS011;33538;48.432;11.350;2023-02-11T02:31:42;39.22;;;15.10;;
47778;SDS011;33538;48.432;11.350;2023-02-11T02:34:26;32.83;;;13.57;;
47778;SDS011;33538;48.432;11.350;2023-02-11T02:36:59;41.00;;;14.57;;
47778;SDS011;33538;48.432;11.350;2023-02-11T02:39:33;41.75;;;16.08;;
47778;SDS011;33538;48.432;11.350;2023-02-11T02:42:02;37.70;;;14.90;;
47778;SDS011;33538;48.432;11.350;2023-02-11T02:44:30;44.10;;;15.75;;
47778;SDS011;33538;48.432;11.350;2023-02-11T02:46:57;41.83;;;16.05;;
47778;SDS011;33538;48.432;11.350;2023-02-11T02:49:25;40.97;;;16.20;;
47778;SDS011;33538;48.432;11.350;2023-02-11T02:51:58;46.65;;;16.40;;
47778;SDS011;33538;48.432;11.350;2023-02-11T02:57:31;29.65;;;12.32;;
47778;SDS011;33538;48.432;11.350;2023-02-11T03:00:07;38.85;;;14.43;;
47778;SDS011;33538;48.432;11.350;2023-02-11T03:02:42;40.72;;;14.35;;
47778;SDS011;33538;48.432;11.350;2023-02-11T03:05:20;36.42;;;14.73;;
47778;SDS011;33538;48.432;11.350;2023-02-11T03:07:55;36.50;;;13.57;;
47778;SDS011;33538;48.432;11.350;2023-02-11T03:10:26;35.22;;;14.20;;
47778;SDS011;33538;48.432;11.350;2023-02-11T03:12:55;42.75;;;15.00;;
47778;SDS011;33538;48.432;11.350;2023-02-11T03:15:23;44.72;;;16.02;;
47778;SDS011;33538;48.432;11.350;2023-02-11T03:17:53;35.50;;;14.82;;
47778;SDS011;33538;48.432;11.350;2023-02-11T03:20:24;34.70;;;14.00;;
47778;SDS011;33538;48.432;11.350;2023-02-11T03:22:55;34.28;;;13.25;;
47778;SDS011;33538;48.432;11.350;2023-02-11T03:25:25;35.17;;;11.93;;
47778;SDS011;33538;48.432;11.350;2023-02-11T03:27:56;36.00;;;12.93;;
47778;SDS011;33538;48.432;11.350;2023-02-11T03:30:29;37.22;;;12.40;;
47778;SDS011;33538;48.432;11.350;2023-02-11T03:33:02;24.63;;;10.87;;
47778;SDS011;33538;48.432;11.350;2023-02-11T03:35:40;34.35;;;12.18;;
47778;SDS011;33538;48.432;11.350;2023-02-11T03:38:10;32.38;;;12.43;;
47778;SDS011;33538;48.432;11.350;2023-02-11T03:40:41;28.52;;;11.82;;
47778;SDS011;33538;48.432;11.350;2023-02-11T03:43:11;28.13;;;10.35;;
47778;SDS011;33538;48.432;11.350;2023-02-11T03:45:41;37.42;;;12.38;;
47778;SDS011;33538;48.432;11.350;2023-02-11T03:48:10;38.30;;;13.40;;
47778;SDS011;33538;48.432;11.350;2023-02-11T03:50:41;28.52;;;12.15;;
47778;SDS011;33538;48.432;11.350;2023-02-11T03:53:10;32.90;;;12.15;;
47778;SDS011;33538;48.432;11.350;2023-02-11T03:55:39;36.70;;;12.75;;
47778;SDS011;33538;48.432;11.350;2023-02-11T03:58:07;43.50;;;14.82;;
47778;SDS011;33538;48.432;11.350;2023-02-11T04:00:35;38.55;;;14.15;;
47778;SDS011;33538;48.432;11.350;2023-02-11T04:03:03;35.58;;;12.45;;
47778;SDS011;33538;48.432;11.350;2023-02-11T04:05:30;32.75;;;13.48;;
47778;SDS011;33538;48.432;11.350;2023-02-11T04:07:58;32.85;;;12.45;;
47778;SDS011;33538;48.432;11.350;2023-02-11T04:10:25;29.83;;;12.10;;
47778;SDS011;33538;48.432;11.350;2023-02-11T04:12:52;32.08;;;13.50;;
47778;SDS011;33538;48.432;11.350;2023-02-11T04:15:19;31.38;;;12.90;;
47778;SDS011;33538;48.432;11.350;2023-02-11T04:17:45;30.60;;;11.10;;
47778;SDS011;33538;48.432;11.350;2023-02-11T04:20:12;31.73;;;13.13;;
47778;SDS011;33538;48.432;11.350;2023-02-11T04:22:39;28.35;;;12.75;;
47778;SDS011;33538;48.432;11.350;2023-02-11T04:25:08;38.88;;;12.93;;
47778;SDS011;33538;48.432;11.350;2023-02-11T04:27:35;33.55;;;10.73;;
47778;SDS011;33538;48.432;11.350;2023-02-11T04:30:02;33.78;;;12.55;;
47778;SDS011;33538;48.432;11.350;2023-02-11T04:32:30;26.88;;;12.88;;
47778;SDS011;33538;48.432;11.350;2023-02-11T04:34:57;32.42;;;12.80;;
47778;SDS011;33538;48.432;11.350;2023-02-11T04:37:23;31.95;;;13.73;;
47778;SDS011;33538;48.432;11.350;2023-02-11T04:39:50;30.95;;;12.10;;
47778;SDS011;33538;48.432;11.350;2023-02-11T04:42:18;35.45;;;13.40;;
47778;SDS011;33538;48.432;11.350;2023-02-11T04:44:45;32.25;;;12.05;;
47778;SDS011;33538;48.432;11.350;2023-02-11T04:47:12;33.13;;;13.45;;
47778;SDS011;33538;48.432;11.350;2023-02-11T04:49:38;33.47;;;13.27;;
47778;SDS011;33538;48.432;11.350;2023-02-11T04:52:05;34.47;;;11.90;;
47778;SDS011;33538;48.432;11.350;2023-02-11T04:54:32;35.13;;;12.95;;
47778;SDS011;33538;48.432;11.350;2023-02-11T04:56:59;32.35;;;12.10;;
47778;SDS011;33538;48.432;11.350;2023-02-11T04:59:27;28.33;;;11.68;;
47778;SDS011;33538;48.432;11.350;2023-02-11T05:01:54;33.95;;;12.40;;
47778;SDS011;33538;48.432;11.350;2023-02-11T05:04:21;27.77;;;11.45;;
47778;SDS011;33538;48.432;11.350;2023-02-11T05:06:48;31.55;;;12.30;;
47778;SDS011;33538;48.432;11.350;2023-02-11T05:09:15;31.75;;;12.55;;
47778;SDS011;33538;48.432;11.350;2023-02-11T05:11:41;36.10;;;12.23;;
47778;SDS011;33538;48.432;11.350;2023-02-11T05:14:08;27.05;;;12.13;;
47778;SDS011;33538;48.432;11.350;2023-02-11T05:16:36;32.58;;;12.10;;
47778;SDS011;33538;48.432;11.350;2023-02-11T05:19:03;28.60;;;11.80;;
47778;SDS011;33538;48.432;11.350;2023-02-11T05:21:30;33.90;;;11.93;;
47778;SDS011;33538;48.432;11.350;2023-02-11T05:23:57;25.73;;;10.70;;
47778;SDS011;33538;48.432;11.350;2023-02-11T05:26:24;26.85;;;9.45;;
47778;SDS011;33538;48.432;11.350;2023-02-11T05:28:51;32.65;;;10.48;;
47778;SDS011;33538;48.432;11.350;2023-02-11T05:31:17;30.15;;;11.13;;
47778;SDS011;33538;48.432;11.350;2023-02-11T05:33:46;28.50;;;11.07;;
47778;SDS011;33538;48.432;11.350;2023-02-11T05:36:13;30.48;;;10.27;;
47778;SDS011;33538;48.432;11.350;2023-02-11T05:38:39;23.67;;;10.27;;
47778;SDS011;33538;48.432;11.350;2023-02-11T05:41:06;23.58;;;9.98;;
47778;SDS011;33538;48.432;11.350;2023-02-11T05:43:33;24.17;;;10.70;;
47778;SDS011;33538;48.432;11.350;2023-02-11T05:46:00;29.10;;;10.40;;
47778;SDS011;33538;48.432;11.350;2023-02-11T05:48:27;28.80;;;10.20;;
47778;SDS011;33538;48.432;11.350;2023-02-11T05:50:55;25.58;;;10.90;;
47778;SDS011;33538;48.432;11.350;2023-02-11T05:53:22;28.58;;;9.95;;
47778;SDS011;33538;48.432;11.350;2023-02-11T05:55:49;24.50;;;8.60;;
47778;SDS011;33538;48.432;11.350;2023-02-11T05:58:16;28.38;;;10.73;;
47778;SDS011;33538;48.432;11.350;2023-02-11T06:00:42;26.77;;;10.50;;
47778;SDS011;33538;48.432;11.350;2023-02-11T06:03:09;20.65;;;9.25;;
47778;SDS011;33538;48.432;11.350;2023-02-11T06:05:36;33.00;;;11.40;;
47778;SDS011;33538;48.432;11.350;2023-02-11T06:08:04;25.00;;;10.60;;
47778;SDS011;33538;48.432;11.350;2023-02-11T06:10:31;33.70;;;11.63;;
47778;SDS011;33538;48.432;11.350;2023-02-11T06:12:58;24.80;;;10.68;;
47778;SDS011;33538;48.432;11.350;2023-02-11T06:15:26;30.20;;;10.85;;
47778;SDS011;33538;48.432;11.350;2023-02-11T06:17:53;19.27;;;8.20;;
47778;SDS011;33538;48.432;11.350;2023-02-11T06:20:19;35.42;;;11.40;;
47778;SDS011;33538;48.432;11.350;2023-02-11T06:22:46;26.70;;;10.98;;
47778;SDS011;33538;48.432;11.350;2023-02-11T06:25:14;27.65;;;11.65;;
47778;SDS011;33538;48.432;11.350;2023-02-11T06:27:41;31.13;;;10.98;;
47778;SDS011;33538;48.432;11.350;2023-02-11T06:30:08;27.38;;;10.73;;
47778;SDS011;33538;48.432;11.350;2023-02-11T06:32:36;26.50;;;11.23;;
47778;SDS011;33538;48.432;11.350;2023-02-11T06:35:11;26.75;;;10.93;;
47778;SDS011;33538;48.432;11.350;2023-02-11T06:37:38;36.88;;;11.38;;
47778;SDS011;33538;48.432;11.350;2023-02-11T06:40:05;25.80;;;10.65;;
47778;SDS011;33538;48.432;11.350;2023-02-11T06:42:34;31.52;;;11.38;;
47778;SDS011;33538;48.432;11.350;2023-02-11T06:45:00;28.52;;;10.05;;
47778;SDS011;33538;48.432;11.350;2023-02-11T06:47:27;19.13;;;9.88;;
47778;SDS011;33538;48.432;11.350;2023-02-11T06:49:54;25.38;;;9.60;;
47778;SDS011;33538;48.432;11.350;2023-02-11T06:52:21;27.02;;;10.43;;
47778;SDS011;33538;48.432;11.350;2023-02-11T06:54:47;23.85;;;10.23;;
47778;SDS011;33538;48.432;11.350;2023-02-11T06:57:14;24.98;;;7.55;;
47778;SDS011;33538;48.432;11.350;2023-02-11T06:59:42;29.92;;;9.75;;
47778;SDS011;33538;48.432;11.350;2023-02-11T07:02:09;32.50;;;10.75;;
47778;SDS011;33538;48.432;11.350;2023-02-11T07:04:36;23.33;;;10.38;;
47778;SDS011;33538;48.432;11.350;2023-02-11T07:07:03;30.70;;;9.50;;
47778;SDS011;33538;48.432;11.350;2023-02-11T07:09:29;27.55;;;10.65;;
47778;SDS011;33538;48.432;11.350;2023-02-11T07:11:56;26.15;;;9.60;;
47778;SDS011;33538;48.432;11.350;2023-02-11T07:14:23;30.77;;;11.07;;
47778;SDS011;33538;48.432;11.350;2023-02-11T07:16:51;34.53;;;11.98;;
47778;SDS011;33538;48.432;11.350;2023-02-11T07:19:18;23.23;;;10.13;;
47778;SDS011;33538;48.432;11.350;2023-02-11T07:21:45;31.83;;;11.55;;
47778;SDS011;33538;48.432;11.350;2023-02-11T07:24:12;26.15;;;10.35;;
47778;SDS011;33538;48.432;11.350;2023-02-11T07:26:38;30.45;;;12.60;;
47778;SDS011;33538;48.432;11.350;2023-02-11T07:29:05;25.40;;;10.93;;
47778;SDS011;33538;48.432;11.350;2023-02-11T07:31:32;31.67;;;12.15;;
47778;SDS011;33538;48.432;11.350;2023-02-11T07:34:00;28.00;;;11.57;;
47778;SDS011;33538;48.432;11.350;2023-02-11T07:36:27;22.83;;;9.23;;
47778;SDS011;33538;48.432;11.350;2023-02-11T07:38:55;19.77;;;7.47;;
47778;SDS011;33538;48.432;11.350;2023-02-11T07:41:23;24.40;;;9.00;;
47778;SDS011;33538;48.432;11.350;2023-02-11T07:43:51;33.83;;;11.02;;
47778;SDS011;33538;48.432;11.350;2023-02-11T07:46:19;26.52;;;10.80;;
47778;SDS011;33538;48.432;11.350;2023-02-11T07:48:47;25.00;;;11.23;;
47778;SDS011;33538;48.432;11.350;2023-02-11T07:51:16;26.33;;;11.13;;
47778;SDS011;33538;48.432;11.350;2023-02-11T07:53:44;27.00;;;10.90;;
47778;SDS011;33538;48.432;11.350;2023-02-11T07:56:11;24.10;;;8.85;;
47778;SDS011;33538;48.432;11.350;2023-02-11T07:58:40;26.55;;;10.27;;
47778;SDS011;33538;48.432;11.350;2023-02-11T08:01:07;25.63;;;9.88;;
47778;SDS011;33538;48.432;11.350;2023-02-11T08:03:36;23.92;;;8.63;;
47778;SDS011;33538;48.432;11.350;2023-02-11T08:06:04;30.52;;;9.35;;
47778;SDS011;33538;48.432;11.350;2023-02-11T08:08:34;27.83;;;10.57;;
47778;SDS011;33538;48.432;11.350;2023-02-11T08:11:04;25.67;;;10.23;;
47778;SDS011;33538;48.432;11.350;2023-02-11T08:13:32;27.77;;;12.10;;
47778;SDS011;33538;48.432;11.350;2023-02-11T08:15:59;22.55;;;9.18;;
47778;SDS011;33538;48.432;11.350;2023-02-11T08:18:26;25.45;;;9.50;;
47778;SDS011;33538;48.432;11.350;2023-02-11T08:20:52;21.67;;;9.00;;
47778;SDS011;33538;48.432;11.350;2023-02-11T08:23:19;24.92;;;9.13;;
47778;SDS011;33538;48.432;11.350;2023-02-11T08:25:47;20.73;;;8.80;;
47778;SDS011;33538;48.432;11.350;2023-02-11T08:28:14;26.13;;;9.60;;
47778;SDS011;33538;48.432;11.350;2023-02-11T08:30:41;21.00;;;8.13;;
47778;SDS011;33538;48.432;11.350;2023-02-11T08:33:07;28.58;;;9.73;;
47778;SDS011;33538;48.432;11.350;2023-02-11T08:35:34;20.70;;;9.80;;
47778;SDS011;33538;48.432;11.350;2023-02-11T08:38:01;17.58;;;8.90;;
47778;SDS011;33538;48.432;11.350;2023-02-11T08:40:28;19.48;;;8.45;;
47778;SDS011;33538;48.432;11.350;2023-02-11T08:42:56;15.35;;;5.70;;
47778;SDS011;33538;48.432;11.350;2023-02-11T08:45:22;18.85;;;6.97;;
47778;SDS011;33538;48.432;11.350;2023-02-11T08:47:49;25.92;;;7.72;;
47778;SDS011;33538;48.432;11.350;2023-02-11T08:50:16;19.25;;;9.35;;
47778;SDS011;33538;48.432;11.350;2023-02-11T08:52:43;20.55;;;8.23;;
47778;SDS011;33538;48.432;11.350;2023-02-11T08:55:09;25.10;;;8.00;;
47778;SDS011;33538;48.432;11.350;2023-02-11T08:57:36;14.98;;;6.80;;
47778;SDS011;33538;48.432;11.350;2023-02-11T09:00:05;28.85;;;9.10;;
47778;SDS011;33538;48.432;11.350;2023-02-11T09:02:33;15.52;;;6.45;;
47778;SDS011;33538;48.432;11.350;2023-02-11T09:04:59;16.08;;;7.43;;
47778;SDS011;33538;48.432;11.350;2023-02-11T09:07:26;22.15;;;8.40;;
47778;SDS011;33538;48.432;11.350;2023-02-11T09:09:53;19.67;;;7.68;;
47778;SDS011;33538;48.432;11.350;2023-02-11T09:12:20;22.38;;;9.77;;
47778;SDS011;33538;48.432;11.350;2023-02-11T09:14:46;24.00;;;9.25;;
47778;SDS011;33538;48.432;11.350;2023-02-11T09:17:14;28.13;;;10.63;;
47778;SDS011;33538;48.432;11.350;2023-02-11T09:19:41;19.90;;;7.68;;
47778;SDS011;33538;48.432;11.350;2023-02-11T09:22:08;21.85;;;7.43;;
47778;SDS011;33538;48.432;11.350;2023-02-11T09:24:35;21.88;;;5.97;;
47778;SDS011;33538;48.432;11.350;2023-02-11T09:27:02;15.68;;;6.80;;
47778;SDS011;33538;48.432;11.350;2023-02-11T09:29:28;20.50;;;8.13;;
47778;SDS011;33538;48.432;11.350;2023-02-11T09:31:55;18.42;;;7.43;;
47778;SDS011;33538;48.432;11.350;2023-02-11T09:34:23;19.15;;;7.32;;
47778;SDS011;33538;48.432;11.350;2023-02-11T09:36:50;10.07;;;5.25;;
47778;SDS011;33538;48.432;11.350;2023-02-11T09:39:17;20.90;;;9.32;;
47778;SDS011;33538;48.432;11.350;2023-02-11T09:41:53;18.30;;;6.90;;
47778;SDS011;33538;48.432;11.350;2023-02-11T09:44:44;21.67;;;9.02;;
47778;SDS011;33538;48.432;11.350;2023-02-11T09:47:17;17.42;;;7.63;;
47778;SDS011;33538;48.432;11.350;2023-02-11T09:49:51;28.40;;;8.65;;
47778;SDS011;33538;48.432;11.350;2023-02-11T09:52:24;19.38;;;6.13;;
47778;SDS011;33538;48.432;11.350;2023-02-11T09:54:58;23.50;;;9.20;;
47778;SDS011;33538;48.432;11.350;2023-02-11T09:57:27;22.15;;;8.35;;
47778;SDS011;33538;48.432;11.350;2023-02-11T09:59:58;16.10;;;6.55;;
47778;SDS011;33538;48.432;11.350;2023-02-11T10:02:28;16.67;;;7.25;;
47778;SDS011;33538;48.432;11.350;2023-02-11T10:05:18;16.42;;;6.95;;
47778;SDS011;33538;48.432;11.350;2023-02-11T10:08:00;15.75;;;6.22;;
47778;SDS011;33538;48.432;11.350;2023-02-11T10:10:42;22.27;;;7.80;;
47778;SDS011;33538;48.432;11.350;2023-02-11T10:13:26;16.58;;;7.32;;
47778;SDS011;33538;48.432;11.350;2023-02-11T10:16:08;16.02;;;7.57;;
47778;SDS011;33538;48.432;11.350;2023-02-11T10:18:49;17.23;;;6.95;;
47778;SDS011;33538;48.432;11.350;2023-02-11T10:21:31;22.03;;;7.30;;
47778;SDS011;33538;48.432;11.350;2023-02-11T10:24:07;20.88;;;8.05;;
47778;SDS011;33538;48.432;11.350;2023-02-11T10:26:37;21.45;;;7.45;;
47778;SDS011;33538;48.432;11.350;2023-02-11T10:29:09;11.98;;;5.50;;
47778;SDS011;33538;48.432;11.350;2023-02-11T10:31:44;13.63;;;5.00;;
47778;SDS011;33538;48.432;11.350;2023-02-11T10:34:13;10.02;;;4.78;;
47778;SDS011;33538;48.432;11.350;2023-02-11T10:36:42;10.02;;;5.47;;
47778;SDS011;33538;48.432;11.350;2023-02-11T10:39:10;15.77;;;6.60;;
47778;SDS011;33538;48.432;11.350;2023-02-11T10:41:40;17.50;;;5.90;;
47778;SDS011;33538;48.432;11.350;2023-02-11T10:44:11;15.73;;;6.70;;
47778;SDS011;33538;48.432;11.350;2023-02-11T10:46:47;16.02;;;6.28;;
47778;SDS011;33538;48.432;11.350;2023-02-11T10:52:12;13.50;;;6.13;;
47778;SDS011;33538;48.432;11.350;2023-02-11T10:54:40;19.35;;;6.63;;
47778;SDS011;33538;48.432;11.350;2023-02-11T10:57:11;13.82;;;5.60;;
47778;SDS011;33538;48.432;11.350;2023-02-11T10:59:44;15.07;;;5.65;;
47778;SDS011;33538;48.432;11.350;2023-02-11T11:02:18;14.18;;;6.63;;
47778;SDS011;33538;48.432;11.350;2023-02-11T11:04:48;14.68;;;6.30;;
47778;SDS011;33538;48.432;11.350;2023-02-11T11:07:22;15.10;;;7.15;;
47778;SDS011;33538;48.432;11.350;2023-02-11T11:09:51;16.38;;;6.88;;
47778;SDS011;33538;48.432;11.350;2023-02-11T11:12:23;16.80;;;6.05;;
47778;SDS011;33538;48.432;11.350;2023-02-11T11:14:53;14.27;;;5.95;;
47778;SDS011;33538;48.432;11.350;2023-02-11T11:17:20;19.00;;;6.00;;
47778;SDS011;33538;48.432;11.350;2023-02-11T11:19:47;13.43;;;5.97;;
47778;SDS011;33538;48.432;11.350;2023-02-11T11:22:18;12.65;;;5.75;;
47778;SDS011;33538;48.432;11.350;2023-02-11T11:24:48;16.77;;;6.10;;
47778;SDS011;33538;48.432;11.350;2023-02-11T11:27:16;14.43;;;6.40;;
47778;SDS011;33538;48.432;11.350;2023-02-11T11:29:45;14.88;;;5.60;;
47778;SDS011;33538;48.432;11.350;2023-02-11T11:32:15;15.55;;;6.50;;
47778;SDS011;33538;48.432;11.350;2023-02-11T11:34:48;20.95;;;6.45;;
47778;SDS011;33538;48.432;11.350;2023-02-11T11:37:19;16.38;;;7.03;;
47778;SDS011;33538;48.432;11.350;2023-02-11T11:39:51;12.48;;;5.60;;
47778;SDS011;33538;48.432;11.350;2023-02-11T11:42:25;23.42;;;7.45;;
47778;SDS011;33538;48.432;11.350;2023-02-11T11:44:57;12.27;;;6.00;;
47778;SDS011;33538;48.432;11.350;2023-02-11T11:47:26;12.73;;;5.47;;
47778;SDS011;33538;48.432;11.350;2023-02-11T11:50:08;17.73;;;6.55;;
47778;SDS011;33538;48.432;11.350;2023-02-11T11:52:47;15.32;;;6.00;;
47778;SDS011;33538;48.432;11.350;2023-02-11T11:55:21;12.63;;;4.65;;
47778;SDS011;33538;48.432;11.350;2023-02-11T11:57:52;12.77;;;5.78;;
47778;SDS011;33538;48.432;11.350;2023-02-11T12:00:20;14.80;;;6.97;;
47778;SDS011;33538;48.432;11.350;2023-02-11T12:05:50;19.80;;;6.18;;
47778;SDS011;33538;48.432;11.350;2023-02-11T12:08:29;16.23;;;7.82;;
47778;SDS011;33538;48.432;11.350;2023-02-11T12:11:10;18.20;;;6.53;;
47778;SDS011;33538;48.432;11.350;2023-02-11T12:13:47;18.70;;;7.45;;
47778;SDS011;33538;48.432;11.350;2023-02-11T12:16:23;23.92;;;9.73;;
47778;SDS011;33538;48.432;11.350;2023-02-11T12:19:12;18.52;;;8.25;;
47778;SDS011;33538;48.432;11.350;2023-02-11T12:22:03;20.70;;;7.85;;
47778;SDS011;33538;48.432;11.350;2023-02-11T12:24:47;16.80;;;7.13;;
47778;SDS011;33538;48.432;11.350;2023-02-11T12:27:31;18.00;;;7.20;;
47778;SDS011;33538;48.432;11.350;2023-02-11T12:30:12;20.23;;;6.68;;
47778;SDS011;33538;48.432;11.350;2023-02-11T12:32:46;21.65;;;8.52;;
47778;SDS011;33538;48.432;11.350;2023-02-11T12:38:22;20.27;;;8.40;;
47778;SDS011;33538;48.432;11.350;2023-02-11T12:41:08;17.15;;;6.82;;
47778;SDS011;33538;48.432;11.350;2023-02-11T12:43:45;15.43;;;6.82;;
47778;SDS011;33538;48.432;11.350;2023-02-11T12:49:08;19.98;;;7.93;;
47778;SDS011;33538;48.432;11.350;2023-02-11T12:51:57;15.93;;;6.85;;
47778;SDS011;33538;48.432;11.350;2023-02-11T12:54:33;17.63;;;6.83;;
47778;SDS011;33538;48.432;11.350;2023-02-11T12:57:06;18.88;;;7.43;;
47778;SDS011;33538;48.432;11.350;2023-02-11T12:59:42;19.13;;;7.77;;
47778;SDS011;33538;48.432;11.350;2023-02-11T13:02:18;20.40;;;6.45;;
47778;SDS011;33538;48.432;11.350;2023-02-11T13:04:53;18.83;;;6.35;;
47778;SDS011;33538;48.432;11.350;2023-02-11T13:07:24;14.38;;;7.70;;
47778;SDS011;33538;48.432;11.350;2023-02-11T13:09:55;18.80;;;8.02;;
47778;SDS011;33538;48.432;11.350;2023-02-11T13:12:25;17.30;;;7.15;;
47778;SDS011;33538;48.432;11.350;2023-02-11T13:14:58;16.65;;;5.93;;
47778;SDS011;33538;48.432;11.350;2023-02-11T13:20:00;20.63;;;6.95;;
47778;SDS011;33538;48.432;11.350;2023-02-11T13:22:41;17.58;;;7.03;;
47778;SDS011;33538;48.432;11.350;2023-02-11T13:25:15;14.65;;;7.15;;
47778;SDS011;33538;48.432;11.350;2023-02-11T13:27:50;14.55;;;6.28;;
47778;SDS011;33538;48.432;11.350;2023-02-11T13:30:24;14.48;;;6.93;;
47778;SDS011;33538;48.432;11.350;2023-02-11T13:33:03;15.70;;;7.05;;
47778;SDS011;33538;48.432;11.350;2023-02-11T13:35:49;15.32;;;6.97;;
47778;SDS011;33538;48.432;11.350;2023-02-11T13:38:37;16.25;;;7.68;;
47778;SDS011;33538;48.432;11.350;2023-02-11T13:41:04;23.27;;;7.60;;
47778;SDS011;33538;48.432;11.350;2023-02-11T13:43:32;17.25;;;7.53;;
47778;SDS011;33538;48.432;11.350;2023-02-11T13:46:03;18.00;;;6.95;;
47778;SDS011;33538;48.432;11.350;2023-02-11T13:48:32;21.95;;;7.57;;
47778;SDS011;33538;48.432;11.350;2023-02-11T13:51:02;12.55;;;6.60;;
47778;SDS011;33538;48.432;11.350;2023-02-11T13:53:41;18.60;;;7.03;;
47778;SDS011;33538;48.432;11.350;2023-02-11T13:56:21;19.48;;;7.57;;
47778;SDS011;33538;48.432;11.350;2023-02-11T14:01:43;20.98;;;6.72;;
47778;SDS011;33538;48.432;11.350;2023-02-11T14:04:28;16.77;;;6.60;;
47778;SDS011;33538;48.432;11.350;2023-02-11T14:09:52;18.33;;;6.70;;
47778;SDS011;33538;48.432;11.350;2023-02-11T14:17:54;12.63;;;5.75;;
47778;SDS011;33538;48.432;11.350;2023-02-11T14:20:31;17.17;;;6.78;;
47778;SDS011;33538;48.432;11.350;2023-02-11T14:23:15;15.75;;;7.68;;
47778;SDS011;33538;48.432;11.350;2023-02-11T14:25:53;12.48;;;5.93;;
47778;SDS011;33538;48.432;11.350;2023-02-11T14:28:37;18.98;;;6.85;;
47778;SDS011;33538;48.432;11.350;2023-02-11T14:31:08;15.02;;;6.35;;
47778;SDS011;33538;48.432;11.350;2023-02-11T14:33:57;16.60;;;6.13;;
47778;SDS011;33538;48.432;11.350;2023-02-11T14:36:54;21.30;;;7.78;;
47778;SDS011;33538;48.432;11.350;2023-02-11T14:39:38;16.65;;;5.97;;
47778;SDS011;33538;48.432;11.350;2023-02-11T14:42:18;26.10;;;9.15;;
47778;SDS011;33538;48.432;11.350;2023-02-11T14:44:46;22.30;;;6.93;;
47778;SDS011;33538;48.432;11.350;2023-02-11T14:47:16;15.30;;;6.50;;
47778;SDS011;33538;48.432;11.350;2023-02-11T14:49:46;19.23;;;7.35;;
47778;SDS011;33538;48.432;11.350;2023-02-11T14:52:15;15.75;;;6.90;;
47778;SDS011;33538;48.432;11.350;2023-02-11T14:54:50;14.80;;;6.40;;
47778;SDS011;33538;48.432;11.350;2023-02-11T14:57:19;41.15;;;13.73;;
47778;SDS011;33538;48.432;11.350;2023-02-11T14:59:55;44.92;;;16.08;;
47778;SDS011;33538;48.432;11.350;2023-02-11T15:02:27;23.30;;;8.15;;
47778;SDS011;33538;48.432;11.350;2023-02-11T15:07:43;17.20;;;7.32;;
47778;SDS011;33538;48.432;11.350;2023-02-11T15:10:16;15.63;;;7.40;;
47778;SDS011;33538;48.432;11.350;2023-02-11T15:12:46;16.55;;;7.30;;